Time;durP1;ratioP1;P1;durP2;ratioP2;P2;SDS_P1;SDS_P2;PMS_P1;PMS_P2;Temp;Humidity;BMP_temperature;BMP_pressure;BME280_temperature;BME280_humidity;BME280_pressure;Samples;Min_cycle;Max_cycle;Signal;HPM_P1;HPM_P2
2022/10/29 00:00:42;;;;;;;14.75;4.95;;;17.90;99.90;;;;;;5022702;28;20034;-74
2022/10/29 00:03:08;;;;;;;16.70;5.03;;;17.80;99.90;;;;;;5041709;28;20038;-73
2022/10/29 00:05:34;;;;;;;12.80;4.90;;;17.70;99.90;;;;;;5005574;28;20053;-74
2022/10/29 00:07:59;;;;;;;16.67;4.97;;;17.80;99.90;;;;;;4992666;28;20046;-79
2022/10/29 00:10:25;;;;;;;15.73;5.20;;;17.80;99.90;;;;;;4976703;28;20045;-79
2022/10/29 00:12:51;;;;;;;18.75;5.85;;;17.90;99.90;;;;;;5009726;28;20052;-71
2022/10/29 00:15:17;;;;;;;17.80;5.00;;;17.80;99.90;;;;;;4976141;28;20776;-71
2022/10/29 00:17:43;;;;;;;18.40;4.75;;;17.70;99.90;;;;;;5015171;28;20053;-72
2022/10/29 00:20:09;;;;;;;18.58;6.13;;;17.80;99.90;;;;;;5006345;28;20046;-71
2022/10/29 00:22:34;;;;;;;18.40;5.63;;;17.80;99.90;;;;;;4992729;28;20046;-70
2022/10/29 00:25:00;;;;;;;16.40;5.22;;;17.90;99.90;;;;;;4992128;28;20045;-70
2022/10/29 00:27:26;;;;;;;17.33;4.97;;;17.80;99.90;;;;;;4974885;28;20140;-70
2022/10/29 00:29:53;;;;;;;13.35;4.88;;;17.90;99.90;;;;;;5023625;28;20164;-71
2022/10/29 00:32:19;;;;;;;13.10;4.90;;;17.90;99.90;;;;;;5008470;28;20045;-70
2022/10/29 00:34:44;;;;;;;15.43;5.30;;;17.90;99.90;;;;;;4993044;28;20475;-70
2022/10/29 00:37:10;;;;;;;17.67;5.65;;;17.80;99.90;;;;;;4976576;28;20113;-71
2022/10/29 00:39:36;;;;;;;15.07;5.60;;;17.70;99.90;;;;;;4991558;28;20467;-70
2022/10/29 00:42:03;;;;;;;17.17;5.40;;;17.70;99.90;;;;;;5008639;28;20100;-71
2022/10/29 00:44:37;;;;;;;13.05;4.57;;;17.80;99.90;;;;;;5008569;28;20123;-72
2022/10/29 00:47:24;;;;;;;12.20;5.45;;;17.80;99.90;;;;;;4992124;28;20084;-70
2022/10/29 00:49:53;;;;;;;17.70;5.50;;;17.80;99.90;;;;;;5007730;28;20052;-70
2022/10/29 00:52:20;;;;;;;14.90;5.47;;;17.70;99.90;;;;;;4996891;28;20464;-71
2022/10/29 00:54:46;;;;;;;15.23;5.25;;;17.80;99.90;;;;;;5004446;28;20093;-71
2022/10/29 00:57:27;;;;;;;16.77;5.28;;;17.80;99.90;;;;;;5020775;28;20757;-70
2022/10/29 00:59:52;;;;;;;16.98;5.13;;;17.90;99.90;;;;;;5000849;28;20599;-70
2022/10/29 01:02:21;;;;;;;15.35;4.80;;;17.80;99.90;;;;;;4997478;28;20184;-72
2022/10/29 01:04:48;;;;;;;20.35;5.72;;;17.80;99.90;;;;;;5007057;28;20463;-70
2022/10/29 01:07:13;;;;;;;17.88;4.70;;;17.80;99.90;;;;;;5008056;28;20076;-71
2022/10/29 01:09:39;;;;;;;14.82;4.88;;;17.90;99.90;;;;;;4990230;28;20471;-70
2022/10/29 01:12:11;;;;;;;14.90;5.25;;;17.90;99.90;;;;;;4988065;28;20085;-70
2022/10/29 01:14:48;;;;;;;15.60;4.93;;;17.90;99.90;;;;;;5007514;28;20057;-70
2022/10/29 01:17:52;;;;;;;15.05;4.45;;;18.00;99.90;;;;;;5005049;28;20049;-70
2022/10/29 01:20:51;;;;;;;15.55;5.05;;;18.00;99.90;;;;;;5004495;28;20049;-70
2022/10/29 01:23:45;;;;;;;16.77;5.93;;;17.90;99.90;;;;;;5007905;28;20042;-71
2022/10/29 01:26:48;;;;;;;15.07;5.47;;;18.00;99.90;;;;;;5007452;28;20042;-71
2022/10/29 01:29:23;;;;;;;16.60;4.93;;;18.00;99.90;;;;;;4983784;28;20550;-70
2022/10/29 01:31:51;;;;;;;16.48;6.13;;;18.00;99.90;;;;;;5026085;28;20050;-70
2022/10/29 01:34:35;;;;;;;;;;;18.00;99.90;;;;;;5005109;28;20056;-71
2022/10/29 01:37:15;;;;;;;19.08;4.93;;;18.00;99.90;;;;;;5003510;28;19968;-73
2022/10/29 01:39:50;;;;;;;17.33;5.18;;;18.00;99.90;;;;;;5004086;28;20073;-69
2022/10/29 01:42:27;;;;;;;19.30;5.25;;;18.00;99.90;;;;;;5016122;28;20053;-70
2022/10/29 01:45:07;;;;;;;16.10;5.32;;;18.00;99.90;;;;;;5042956;28;20149;-70
2022/10/29 01:47:37;;;;;;;15.55;5.22;;;17.90;99.90;;;;;;5023346;28;20081;-79
2022/10/29 01:50:05;;;;;;;15.57;5.15;;;17.90;99.90;;;;;;4987788;28;20111;-80
2022/10/29 01:52:31;;;;;;;15.45;4.95;;;17.90;99.90;;;;;;5021057;28;20364;-79
2022/10/29 01:54:57;;;;;;;12.82;4.57;;;17.90;99.90;;;;;;5005195;28;20061;-78
2022/10/29 01:57:36;;;;;;;14.55;5.10;;;17.90;99.90;;;;;;4986128;28;20043;-78
2022/10/29 02:00:08;;;;;;;16.33;5.07;;;17.80;99.90;;;;;;4987878;28;20041;-78
2022/10/29 02:02:39;;;;;;;13.73;5.22;;;17.80;99.90;;;;;;4989417;28;20038;-78
2022/10/29 02:05:18;;;;;;;18.00;5.53;;;17.80;99.90;;;;;;5006032;28;20716;-78
2022/10/29 02:07:55;;;;;;;16.10;5.75;;;17.70;99.90;;;;;;5004538;28;20057;-78
2022/10/29 02:10:34;;;;;;;15.18;6.00;;;17.70;99.90;;;;;;5003842;28;20475;-79
2022/10/29 02:12:59;;;;;;;11.32;6.00;;;17.70;99.90;;;;;;4997737;28;20046;-78
2022/10/29 02:15:28;;;;;;;15.98;6.35;;;17.60;99.90;;;;;;4983087;28;20054;-79
2022/10/29 02:18:01;;;;;;;19.83;7.15;;;17.60;99.90;;;;;;5009534;28;20443;-78
2022/10/29 02:20:26;;;;;;;17.27;5.82;;;17.60;99.90;;;;;;4977023;28;20069;-80
2022/10/29 02:22:52;;;;;;;16.67;6.32;;;17.60;99.90;;;;;;4992145;28;20613;-79
2022/10/29 02:25:18;;;;;;;19.48;5.90;;;17.60;99.90;;;;;;4992492;28;20116;-80
2022/10/29 02:27:45;;;;;;;16.50;5.53;;;17.60;99.90;;;;;;5008598;28;20122;-79
2022/10/29 02:30:11;;;;;;;12.50;5.93;;;17.60;99.90;;;;;;4976611;28;20056;-78
2022/10/29 02:32:36;;;;;;;17.23;5.82;;;17.60;99.90;;;;;;5006051;28;20368;-79
2022/10/29 02:35:02;;;;;;;20.60;6.38;;;17.60;99.90;;;;;;5007476;28;20133;-79
2022/10/29 02:37:28;;;;;;;15.95;6.55;;;17.60;99.90;;;;;;5002512;28;20066;-79
2022/10/29 02:39:54;;;;;;;24.25;5.72;;;17.60;99.90;;;;;;4992543;28;20081;-78
2022/10/29 02:42:20;;;;;;;19.77;6.57;;;17.60;99.90;;;;;;4991749;28;20048;-79
2022/10/29 02:44:46;;;;;;;18.40;6.35;;;17.50;99.90;;;;;;4975439;28;20101;-79
2022/10/29 02:47:12;;;;;;;17.27;6.18;;;17.50;99.90;;;;;;5007801;28;20065;-77
2022/10/29 02:49:37;;;;;;;15.27;5.40;;;17.60;99.90;;;;;;5008583;28;20488;-79
2022/10/29 02:52:04;;;;;;;16.50;5.95;;;17.60;99.90;;;;;;4992411;28;20108;-78
2022/10/29 02:54:30;;;;;;;20.05;6.25;;;17.50;99.90;;;;;;4974977;28;20115;-78
2022/10/29 02:56:55;;;;;;;14.63;6.38;;;17.50;99.90;;;;;;4975399;28;20539;-79
2022/10/29 02:59:21;;;;;;;16.33;6.15;;;17.50;99.90;;;;;;4991879;28;20056;-80
2022/10/29 03:01:47;;;;;;;17.10;5.75;;;17.50;99.90;;;;;;5007034;28;20538;-78
2022/10/29 03:04:14;;;;;;;14.48;5.90;;;17.50;99.90;;;;;;5007780;28;20053;-78
2022/10/29 03:06:39;;;;;;;18.92;6.03;;;17.50;99.90;;;;;;4975990;28;20045;-77
2022/10/29 03:09:05;;;;;;;16.67;6.82;;;17.50;99.90;;;;;;5007347;28;20155;-79
2022/10/29 03:11:31;;;;;;;18.67;6.50;;;17.40;99.90;;;;;;5008384;28;20042;-79
2022/10/29 03:13:57;;;;;;;15.07;6.00;;;17.40;99.90;;;;;;4974942;28;20050;-79
2022/10/29 03:16:23;;;;;;;15.93;6.55;;;17.30;99.90;;;;;;5008760;28;20084;-78
2022/10/29 03:18:49;;;;;;;16.90;6.15;;;17.30;99.90;;;;;;4992009;28;20042;-80
2022/10/29 03:21:14;;;;;;;17.85;6.50;;;17.20;99.90;;;;;;4975269;28;20068;-77
2022/10/29 03:23:41;;;;;;;17.60;6.05;;;17.10;99.90;;;;;;5008665;28;20053;-78
2022/10/29 03:26:07;;;;;;;24.63;7.53;;;17.10;99.90;;;;;;5009083;28;20038;-79
2022/10/29 03:28:33;;;;;;;18.70;6.28;;;17.10;99.90;;;;;;5008565;28;20077;-78
2022/10/29 03:30:59;;;;;;;15.93;6.03;;;16.80;99.90;;;;;;4989180;28;20762;-79
2022/10/29 03:33:25;;;;;;;19.55;7.03;;;16.80;99.90;;;;;;5009835;28;20110;-78
2022/10/29 03:36:02;;;;;;;17.27;6.32;;;16.70;99.90;;;;;;5016601;28;20072;-77
2022/10/29 03:38:28;;;;;;;16.73;6.47;;;16.50;99.90;;;;;;5008633;28;20127;-79
2022/10/29 03:40:54;;;;;;;22.95;6.93;;;16.50;99.90;;;;;;4994699;28;20763;-78
2022/10/29 03:43:19;;;;;;;15.30;6.90;;;16.40;99.90;;;;;;5026798;28;20046;-78
2022/10/29 03:45:52;;;;;;;25.17;7.00;;;16.40;99.90;;;;;;5006127;28;20049;-79
2022/10/29 03:48:18;;;;;;;18.67;7.28;;;16.40;99.90;;;;;;5017087;28;20057;-79
2022/10/29 03:50:44;;;;;;;23.42;6.97;;;16.40;99.90;;;;;;4992901;28;20045;-78
2022/10/29 03:53:10;;;;;;;15.88;6.72;;;16.40;99.90;;;;;;4978044;28;20099;-77
2022/10/29 03:55:36;;;;;;;20.80;6.70;;;16.40;99.90;;;;;;5011040;28;20426;-79
2022/10/29 03:58:01;;;;;;;16.30;6.43;;;16.40;99.90;;;;;;4993943;28;20105;-79
2022/10/29 04:00:27;;;;;;;14.23;5.70;;;16.40;99.90;;;;;;5025033;28;20050;-81
2022/10/29 04:02:53;;;;;;;13.13;6.25;;;16.40;99.90;;;;;;5037992;28;20113;-75
2022/10/29 04:05:18;;;;;;;25.75;6.55;;;16.30;99.90;;;;;;4973973;28;20054;-76
2022/10/29 04:07:44;;;;;;;23.63;6.57;;;16.20;99.90;;;;;;4993041;28;20045;-76
2022/10/29 04:10:10;;;;;;;15.05;5.75;;;16.20;99.90;;;;;;5010169;28;20468;-76
2022/10/29 04:12:35;;;;;;;16.77;5.97;;;16.20;99.90;;;;;;5007788;28;20046;-76
2022/10/29 04:15:01;;;;;;;19.05;6.55;;;16.20;99.90;;;;;;5019599;28;20467;-76
2022/10/29 04:17:27;;;;;;;16.05;6.60;;;16.20;99.90;;;;;;4989337;28;20075;-77
2022/10/29 04:19:53;;;;;;;17.70;6.40;;;16.10;99.90;;;;;;5005956;28;20054;-75
2022/10/29 04:22:18;;;;;;;19.30;6.65;;;16.00;99.90;;;;;;4989930;28;20749;-76
2022/10/29 04:24:44;;;;;;;22.05;6.68;;;16.00;99.90;;;;;;4985983;28;20157;-75
2022/10/29 04:27:10;;;;;;;19.73;6.57;;;16.00;99.90;;;;;;5006500;28;20059;-75
2022/10/29 04:29:35;;;;;;;20.10;7.18;;;15.90;99.90;;;;;;4988297;28;20050;-76
2022/10/29 04:32:01;;;;;;;19.45;6.88;;;15.90;99.90;;;;;;5004201;28;20617;-76
2022/10/29 04:34:27;;;;;;;16.30;6.53;;;15.80;99.90;;;;;;4987177;28;20108;-76
2022/10/29 04:36:53;;;;;;;19.77;6.40;;;15.70;99.90;;;;;;5012248;28;20373;-75
2022/10/29 04:39:19;;;;;;;17.42;6.88;;;15.70;99.90;;;;;;5005568;28;20030;-75
2022/10/29 04:41:47;;;;;;;18.08;6.85;;;15.70;99.90;;;;;;5005189;28;20049;-76
2022/10/29 04:44:13;;;;;;;16.25;6.40;;;15.70;99.90;;;;;;4984425;28;20746;-76
2022/10/29 04:46:39;;;;;;;16.27;5.70;;;15.60;99.90;;;;;;5001692;28;20125;-75
2022/10/29 04:49:04;;;;;;;16.73;6.30;;;15.50;99.90;;;;;;4991541;28;20858;-76
2022/10/29 04:51:30;;;;;;;17.15;5.82;;;15.50;99.90;;;;;;4990836;28;20100;-75
2022/10/29 04:53:56;;;;;;;17.35;6.38;;;15.50;99.90;;;;;;5003578;28;20093;-76
2022/10/29 04:56:21;;;;;;;17.48;6.32;;;15.50;99.90;;;;;;5016592;28;20484;-75
2022/10/29 04:58:50;;;;;;;17.63;6.07;;;15.50;99.90;;;;;;5021468;28;20050;-76
2022/10/29 05:01:16;;;;;;;17.30;6.03;;;15.50;99.90;;;;;;5002899;28;20048;-76
2022/10/29 05:03:42;;;;;;;18.58;6.43;;;15.50;99.90;;;;;;5020535;28;20045;-75
2022/10/29 05:06:08;;;;;;;20.23;7.03;;;15.50;99.90;;;;;;5027776;28;20049;-76
2022/10/29 05:08:34;;;;;;;19.45;6.20;;;15.50;99.90;;;;;;5011225;28;20384;-77
2022/10/29 05:11:03;;;;;;;19.05;6.45;;;15.50;99.90;;;;;;5011867;28;20054;-76
2022/10/29 05:13:29;;;;;;;16.25;5.65;;;15.50;99.90;;;;;;5013235;28;20406;-76
2022/10/29 05:15:55;;;;;;;20.88;6.57;;;15.50;99.90;;;;;;4997968;28;20057;-75
2022/10/29 05:18:21;;;;;;;18.45;6.45;;;15.50;99.90;;;;;;4994664;28;20050;-76
2022/10/29 05:20:47;;;;;;;21.95;5.88;;;15.50;99.90;;;;;;5011460;28;20078;-75
2022/10/29 05:23:12;;;;;;;22.00;6.13;;;15.50;99.90;;;;;;4994575;28;20113;-76
2022/10/29 05:25:39;;;;;;;17.10;5.57;;;15.50;99.90;;;;;;5007216;28;20455;-76
2022/10/29 05:28:06;;;;;;;19.00;6.57;;;15.50;99.90;;;;;;5021512;28;20150;-75
2022/10/29 05:30:32;;;;;;;24.93;6.60;;;15.50;99.90;;;;;;5008813;28;20074;-76
2022/10/29 05:32:58;;;;;;;22.63;7.43;;;15.50;99.90;;;;;;5010425;28;20745;-73
2022/10/29 05:35:25;;;;;;;15.90;5.68;;;15.50;99.90;;;;;;5009692;28;20042;-77
2022/10/29 05:37:54;;;;;;;16.73;6.30;;;15.50;99.90;;;;;;5021618;28;20038;-74
2022/10/29 05:40:21;;;;;;;16.17;7.30;;;15.50;99.90;;;;;;5009138;28;20053;-74
2022/10/29 05:42:46;;;;;;;19.42;7.53;;;15.50;99.90;;;;;;4989531;28;20042;-75
2022/10/29 05:45:12;;;;;;;23.02;7.03;;;15.50;99.90;;;;;;4992718;28;20100;-73
2022/10/29 05:47:38;;;;;;;18.13;7.22;;;15.50;99.90;;;;;;5041255;28;20084;-76
2022/10/29 05:50:04;;;;;;;17.20;6.45;;;15.50;99.90;;;;;;5010578;28;20714;-74
2022/10/29 05:52:30;;;;;;;14.30;6.53;;;15.50;99.90;;;;;;5045823;28;20203;-73
2022/10/29 05:54:56;;;;;;;15.50;6.55;;;15.50;99.90;;;;;;5018274;28;20944;-74
2022/10/29 05:57:22;;;;;;;20.15;6.45;;;15.50;99.90;;;;;;5011219;28;20124;-74
2022/10/29 05:59:48;;;;;;;20.23;6.90;;;15.50;99.90;;;;;;5012149;28;20140;-73
2022/10/29 06:02:14;;;;;;;16.35;6.13;;;15.50;99.90;;;;;;4993979;28;20057;-73
2022/10/29 06:04:39;;;;;;;18.52;7.00;;;15.50;99.90;;;;;;5008579;28;20112;-74
2022/10/29 06:07:05;;;;;;;18.48;6.38;;;15.50;99.90;;;;;;4986835;28;20053;-74
2022/10/29 06:09:31;;;;;;;18.98;7.18;;;15.40;99.90;;;;;;5034447;28;20547;-74
2022/10/29 06:11:57;;;;;;;21.85;6.60;;;15.40;99.90;;;;;;4991653;28;20054;-75
2022/10/29 06:14:22;;;;;;;25.10;7.47;;;15.40;99.90;;;;;;5017311;28;20201;-73
2022/10/29 06:16:48;;;;;;;15.82;5.82;;;15.40;99.90;;;;;;5002427;28;20042;-71
2022/10/29 06:19:14;;;;;;;14.15;6.20;;;15.40;99.90;;;;;;5010508;28;20049;-72
2022/10/29 06:21:40;;;;;;;16.52;6.20;;;15.30;99.90;;;;;;5009784;28;20515;-73
2022/10/29 06:24:06;;;;;;;22.85;7.10;;;15.30;99.90;;;;;;5022650;28;20101;-74
2022/10/29 06:26:32;;;;;;;15.52;6.68;;;15.30;99.90;;;;;;5006695;28;20050;-73
2022/10/29 06:28:58;;;;;;;19.17;7.07;;;15.20;99.90;;;;;;5025544;28;20124;-74
2022/10/29 06:31:24;;;;;;;19.15;7.10;;;15.20;99.90;;;;;;5012732;28;20046;-73
2022/10/29 06:33:50;;;;;;;17.13;6.90;;;15.20;99.90;;;;;;4979148;28;20151;-75
2022/10/29 06:36:16;;;;;;;24.67;7.18;;;15.20;99.90;;;;;;5011152;28;20081;-74
2022/10/29 06:38:41;;;;;;;19.85;6.95;;;15.30;99.90;;;;;;5011939;28;20073;-73
2022/10/29 06:41:08;;;;;;;22.65;7.35;;;15.30;99.90;;;;;;5011795;28;20145;-74
2022/10/29 06:43:34;;;;;;;18.90;7.53;;;15.30;99.90;;;;;;5006717;28;20065;-74
2022/10/29 06:46:00;;;;;;;19.45;7.35;;;15.30;99.90;;;;;;4994766;28;20754;-74
2022/10/29 06:48:25;;;;;;;17.23;6.80;;;15.30;99.90;;;;;;5009109;28;20053;-74
2022/10/29 06:50:51;;;;;;;16.48;7.07;;;15.40;99.90;;;;;;4977681;28;20049;-72
2022/10/29 06:53:17;;;;;;;18.60;7.40;;;15.40;99.90;;;;;;4995097;28;20045;-74
2022/10/29 06:55:43;;;;;;;17.90;6.85;;;15.50;99.90;;;;;;5009726;28;20045;-74
2022/10/29 06:58:17;;;;;;;21.88;6.93;;;15.50;99.90;;;;;;5012036;28;20115;-73
2022/10/29 07:00:43;;;;;;;17.50;7.15;;;15.60;99.90;;;;;;5011449;28;20060;-74
2022/10/29 07:03:13;;;;;;;21.98;7.82;;;15.60;99.90;;;;;;4993274;28;20124;-75
2022/10/29 07:05:39;;;;;;;20.10;7.45;;;15.60;99.90;;;;;;5021837;28;20050;-74
2022/10/29 07:08:05;;;;;;;16.60;6.90;;;15.60;99.90;;;;;;5010137;28;20490;-74
2022/10/29 07:10:31;;;;;;;16.70;7.53;;;15.60;99.90;;;;;;5004746;28;20058;-74
2022/10/29 07:12:57;;;;;;;20.95;7.60;;;15.60;99.90;;;;;;4977942;28;20616;-74
2022/10/29 07:15:22;;;;;;;20.85;6.88;;;15.60;99.90;;;;;;5009940;28;20046;-75
2022/10/29 07:18:01;;;;;;;18.88;7.93;;;15.60;99.90;;;;;;5026498;28;20088;-74
2022/10/29 07:20:28;;;;;;;15.25;6.32;;;15.70;99.90;;;;;;5007995;28;20042;-73
2022/10/29 07:22:56;;;;;;;16.27;7.18;;;15.60;99.90;;;;;;5024997;28;20158;-74
2022/10/29 07:25:22;;;;;;;16.60;6.65;;;15.70;99.90;;;;;;4990845;28;20056;-74
2022/10/29 07:27:48;;;;;;;15.93;7.22;;;15.70;99.90;;;;;;5007665;28;20130;-73
2022/10/29 07:30:14;;;;;;;25.50;7.68;;;15.70;99.90;;;;;;5008266;28;20096;-74
2022/10/29 07:32:40;;;;;;;18.10;7.28;;;15.70;99.90;;;;;;5026872;28;20196;-74
2022/10/29 07:35:06;;;;;;;14.77;6.70;;;15.60;99.90;;;;;;4990045;28;20130;-73
2022/10/29 07:37:33;;;;;;;17.77;6.72;;;15.60;99.90;;;;;;4998809;28;20144;-73
2022/10/29 07:39:59;;;;;;;17.77;7.25;;;15.60;99.90;;;;;;4977383;28;20049;-74
2022/10/29 07:42:24;;;;;;;21.98;7.70;;;15.60;99.90;;;;;;4993295;28;20038;-73
2022/10/29 07:44:50;;;;;;;19.77;7.00;;;15.60;99.90;;;;;;5010000;28;20476;-73
2022/10/29 07:47:16;;;;;;;17.48;6.50;;;15.70;99.90;;;;;;5010064;28;20148;-74
2022/10/29 07:49:41;;;;;;;19.77;6.93;;;15.80;99.90;;;;;;4993906;28;20475;-73
2022/10/29 07:52:08;;;;;;;19.80;6.47;;;15.80;99.90;;;;;;5008447;28;20111;-73
2022/10/29 07:54:36;;;;;;;23.55;7.25;;;15.80;99.90;;;;;;5019841;28;20046;-74
2022/10/29 07:57:02;;;;;;;20.42;7.55;;;15.90;99.90;;;;;;5009996;28;20057;-73
2022/10/29 07:59:28;;;;;;;18.65;8.18;;;15.90;99.90;;;;;;5009800;28;20050;-74
2022/10/29 08:01:54;;;;;;;22.00;8.25;;;15.90;99.90;;;;;;4976874;28;20042;-73
2022/10/29 08:04:20;;;;;;;18.98;6.82;;;16.00;99.90;;;;;;5006215;28;20499;-74
2022/10/29 08:06:45;;;;;;;18.52;7.10;;;15.90;99.90;;;;;;5009875;28;20056;-73
2022/10/29 08:09:11;;;;;;;22.73;7.65;;;16.00;99.90;;;;;;5009360;28;20057;-72
2022/10/29 08:11:37;;;;;;;19.35;8.45;;;16.00;99.90;;;;;;5006439;28;20531;-73
2022/10/29 08:14:03;;;;;;;20.55;8.15;;;16.00;99.90;;;;;;5017766;28;20045;-74
2022/10/29 08:16:28;;;;;;;19.20;7.72;;;16.00;99.90;;;;;;5008127;28;20092;-73
2022/10/29 08:18:54;;;;;;;17.65;7.20;;;16.00;99.90;;;;;;4990013;28;20473;-73
2022/10/29 08:21:20;;;;;;;23.27;7.97;;;16.00;99.90;;;;;;5038739;28;20132;-73
2022/10/29 08:23:46;;;;;;;20.52;7.30;;;16.00;99.90;;;;;;5006972;28;20062;-73
2022/10/29 08:26:12;;;;;;;19.25;6.88;;;16.00;99.90;;;;;;4990628;28;20111;-74
2022/10/29 08:28:38;;;;;;;18.60;6.90;;;16.10;99.90;;;;;;5009668;28;20372;-74
2022/10/29 08:31:03;;;;;;;21.88;8.20;;;16.10;99.90;;;;;;5009767;28;20371;-73
2022/10/29 08:33:29;;;;;;;20.90;8.23;;;16.10;99.90;;;;;;4992750;28;20464;-74
2022/10/29 08:35:55;;;;;;;17.92;7.90;;;16.20;99.90;;;;;;5002804;28;20068;-74
2022/10/29 08:38:24;;;;;;;22.42;7.82;;;16.30;99.90;;;;;;4992967;28;20041;-74
2022/10/29 08:41:08;;;;;;;25.77;7.90;;;16.40;99.90;;;;;;5004697;28;20050;-74
2022/10/29 08:43:54;;;;;;;17.10;7.07;;;16.50;99.90;;;;;;5009986;28;20444;-73
2022/10/29 08:46:28;;;;;;;23.52;7.22;;;16.60;99.90;;;;;;5008750;28;20045;-74
2022/10/29 08:48:57;;;;;;;18.50;8.27;;;16.60;99.90;;;;;;5007986;28;20061;-73
2022/10/29 08:51:46;;;;;;;14.80;6.38;;;16.60;99.90;;;;;;5008925;28;20106;-74
2022/10/29 08:54:16;;;;;;;22.75;7.68;;;16.70;99.90;;;;;;5009763;28;20052;-74
2022/10/29 08:56:53;;;;;;;17.05;7.55;;;16.60;99.90;;;;;;5007567;28;20104;-74
2022/10/29 08:59:23;;;;;;;22.90;7.80;;;16.80;99.90;;;;;;5009552;28;20056;-74
2022/10/29 09:01:49;;;;;;;22.02;7.50;;;16.80;99.90;;;;;;5009510;28;20781;-74
2022/10/29 09:04:30;;;;;;;20.40;9.10;;;16.90;99.90;;;;;;4992853;28;20049;-73
2022/10/29 09:07:22;;;;;;;22.80;8.60;;;17.00;99.90;;;;;;4989333;28;20046;-73
2022/10/29 09:09:59;;;;;;;21.60;7.30;;;17.10;99.90;;;;;;5002758;28;20374;-74
2022/10/29 09:12:44;;;;;;;19.73;6.88;;;17.20;99.90;;;;;;5008928;28;20151;-74
2022/10/29 09:15:34;;;;;;;20.15;6.68;;;17.30;99.90;;;;;;5022820;28;20042;-74
2022/10/29 09:18:15;;;;;;;22.58;7.25;;;17.40;99.90;;;;;;5008296;28;20076;-74
2022/10/29 09:20:54;;;;;;;20.33;8.20;;;17.50;99.90;;;;;;5007928;28;20054;-74
2022/10/29 09:23:57;;;;;;;18.42;6.88;;;17.50;99.90;;;;;;5005378;28;20057;-74
2022/10/29 09:26:31;;;;;;;24.23;7.32;;;17.60;99.90;;;;;;5024023;28;20545;-74
2022/10/29 09:29:32;;;;;;;21.02;6.95;;;17.60;99.90;;;;;;4985818;28;20140;-73
2022/10/29 09:32:04;;;;;;;21.00;6.90;;;17.80;99.90;;;;;;5024407;28;20073;-72
2022/10/29 09:34:33;;;;;;;17.65;7.32;;;17.90;99.90;;;;;;5004598;28;20092;-73
2022/10/29 09:37:00;;;;;;;19.95;7.05;;;18.10;99.90;;;;;;5006811;28;20496;-74
2022/10/29 09:39:34;;;;;;;19.05;8.15;;;18.20;99.90;;;;;;5007635;28;20439;-74
2022/10/29 09:42:00;;;;;;;23.13;7.60;;;18.20;99.90;;;;;;5006452;28;20045;-74
2022/10/29 09:44:56;;;;;;;18.20;7.53;;;18.40;99.90;;;;;;5008029;28;20061;-73
2022/10/29 09:47:33;;;;;;;27.60;8.02;;;18.40;99.90;;;;;;5037072;28;20050;-73
2022/10/29 09:50:22;;;;;;;21.25;7.82;;;18.30;99.90;;;;;;5006330;28;20371;-73
2022/10/29 09:52:49;;;;;;;20.60;7.45;;;18.30;99.90;;;;;;5002077;28;20430;-73
2022/10/29 09:55:26;;;;;;;23.10;8.43;;;18.30;99.90;;;;;;4976389;28;20042;-74
2022/10/29 09:57:52;;;;;;;19.08;7.20;;;18.30;99.90;;;;;;4991092;28;20042;-73
2022/10/29 10:00:19;;;;;;;20.50;7.95;;;18.20;99.90;;;;;;4991721;28;20049;-73
2022/10/29 10:02:54;;;;;;;16.92;8.38;;;18.30;99.90;;;;;;5007961;28;20048;-73
2022/10/29 10:05:30;;;;;;;23.15;8.90;;;18.20;99.90;;;;;;5006854;28;20057;-73
2022/10/29 10:08:05;;;;;;;20.48;8.45;;;18.20;99.90;;;;;;5021354;28;20050;-73
2022/10/29 10:10:31;;;;;;;18.05;7.85;;;18.20;99.90;;;;;;5009001;28;20125;-73
2022/10/29 10:13:01;;;;;;;19.90;7.50;;;18.10;99.90;;;;;;5006403;28;20140;-73
2022/10/29 10:15:34;;;;;;;15.45;7.45;;;18.20;99.90;;;;;;5007648;28;20106;-73
2022/10/29 10:18:15;;;;;;;18.98;7.03;;;18.20;99.90;;;;;;4991971;28;20112;-73
2022/10/29 10:20:44;;;;;;;19.80;7.82;;;18.20;99.90;;;;;;4982670;28;20100;-72
2022/10/29 10:23:41;;;;;;;18.50;7.80;;;18.40;99.90;;;;;;5008666;28;20042;-74
2022/10/29 10:26:25;;;;;;;22.38;7.57;;;18.50;99.90;;;;;;4990842;28;20061;-73
2022/10/29 10:29:04;;;;;;;25.88;8.18;;;18.60;99.90;;;;;;5036033;28;20087;-74
2022/10/29 10:31:30;;;;;;;21.15;7.63;;;18.70;99.90;;;;;;4988426;28;20070;-73
2022/10/29 10:33:56;;;;;;;18.88;8.45;;;19.00;99.90;;;;;;4990306;28;20447;-74
2022/10/29 10:36:33;;;;;;;22.90;8.27;;;19.60;99.90;;;;;;5004698;28;20038;-74
2022/10/29 10:38:59;;;;;;;17.73;7.13;;;19.90;99.90;;;;;;4999930;28;21098;-73
2022/10/29 10:41:27;;;;;;;21.08;6.85;;;20.10;99.90;;;;;;5019549;28;20057;-74
2022/10/29 10:43:55;;;;;;;24.60;7.13;;;20.60;99.90;;;;;;5009416;28;20050;-73
2022/10/29 10:46:26;;;;;;;22.27;7.75;;;20.50;99.90;;;;;;4993113;28;20057;-73
2022/10/29 10:49:01;;;;;;;22.20;7.70;;;20.10;99.90;;;;;;5010745;28;20046;-74
2022/10/29 10:51:31;;;;;;;15.57;7.47;;;19.90;99.90;;;;;;4993206;28;20100;-74
2022/10/29 10:53:58;;;;;;;25.08;7.22;;;19.70;99.90;;;;;;4994013;28;20046;-74
2022/10/29 10:56:26;;;;;;;23.77;8.20;;;19.60;99.90;;;;;;5013822;28;20045;-74
2022/10/29 10:59:05;;;;;;;28.23;7.50;;;19.60;99.90;;;;;;4993628;28;20046;-74
2022/10/29 11:01:40;;;;;;;17.67;6.93;;;19.50;99.90;;;;;;5010182;28;20168;-74
2022/10/29 11:04:26;;;;;;;22.60;7.65;;;19.40;99.90;;;;;;5015325;28;20053;-75
2022/10/29 11:06:52;;;;;;;21.52;7.63;;;19.30;99.90;;;;;;5010789;28;20069;-74
2022/10/29 11:09:37;;;;;;;20.00;7.72;;;19.30;99.90;;;;;;4993165;28;20769;-77
2022/10/29 11:12:30;;;;;;;18.80;7.57;;;19.20;99.90;;;;;;4992946;28;20045;-77
2022/10/29 11:15:05;;;;;;;22.02;9.13;;;19.30;99.90;;;;;;5009937;28;20053;-74
2022/10/29 11:17:52;;;;;;;19.08;7.60;;;19.30;99.90;;;;;;5009732;28;20046;-74
2022/10/29 11:20:27;;;;;;;17.80;7.40;;;19.30;99.90;;;;;;5007166;28;20360;-74
2022/10/29 11:23:33;;;;;;;23.05;7.93;;;19.30;99.90;;;;;;4993833;28;20049;-74
2022/10/29 11:26:31;;;;;;;25.00;8.13;;;19.40;99.90;;;;;;4992535;28;20050;-74
2022/10/29 11:29:16;;;;;;;18.33;7.40;;;19.40;99.90;;;;;;5005425;28;20050;-75
2022/10/29 11:31:52;;;;;;;21.33;6.78;;;19.50;99.90;;;;;;5006510;28;20046;-74
2022/10/29 11:34:22;;;;;;;25.30;8.88;;;19.60;99.90;;;;;;4993188;28;20065;-74
2022/10/29 11:36:56;;;;;;;22.73;7.95;;;19.90;99.90;;;;;;5008790;28;20103;-73
2022/10/29 11:39:29;;;;;;;24.13;7.57;;;20.50;99.90;;;;;;5008385;28;20037;-73
2022/10/29 11:41:59;;;;;;;23.52;7.75;;;20.90;99.90;;;;;;5006271;28;20400;-72
2022/10/29 11:44:25;;;;;;;19.58;7.38;;;20.70;99.90;;;;;;5025093;28;20045;-71
2022/10/29 11:47:15;;;;;;;20.40;8.82;;;20.60;99.90;;;;;;4990734;28;20062;-72
2022/10/29 11:50:26;;;;;;;17.23;7.20;;;20.70;99.90;;;;;;5002578;28;20042;-72
2022/10/29 11:53:04;;;;;;;20.20;7.75;;;21.00;99.90;;;;;;5007528;28;20152;-71
2022/10/29 11:55:39;;;;;;;;;;;20.80;99.90;;;;;;5008516;28;20046;-70
2022/10/29 11:58:30;;;;;;;15.70;7.40;;;20.90;99.90;;;;;;5037334;28;19978;-71
2022/10/29 12:01:04;;;;;;;18.13;6.80;;;20.80;99.90;;;;;;5008938;28;20044;-70
2022/10/29 12:03:33;;;;;;;18.58;7.40;;;21.30;99.90;;;;;;5008874;28;20042;-70
2022/10/29 12:06:08;;;;;;;20.52;6.85;;;21.70;99.90;;;;;;5006881;28;20046;-72
2022/10/29 12:08:55;;;;;;;18.83;6.93;;;21.90;99.90;;;;;;4992559;28;20067;-71
2022/10/29 12:11:33;;;;;;;14.85;7.25;;;22.10;99.90;;;;;;5006558;28;20049;-71
2022/10/29 12:14:08;;;;;;;20.95;6.93;;;22.00;99.90;;;;;;5041045;28;20060;-70
2022/10/29 12:16:43;;;;;;;16.30;7.35;;;22.30;99.90;;;;;;5007346;28;20049;-71
2022/10/29 12:19:28;;;;;;;19.50;7.47;;;22.40;99.50;;;;;;5003908;28;20387;-71
2022/10/29 12:22:25;;;;;;;18.42;7.43;;;22.40;99.10;;;;;;5009649;28;20100;-72
2022/10/29 12:25:25;;;;;;;15.10;6.47;;;22.40;98.90;;;;;;5015882;28;20096;-72
2022/10/29 12:28:06;;;;;;;16.83;8.02;;;22.40;98.20;;;;;;5004813;28;20056;-71
2022/10/29 12:30:34;;;;;;;21.75;10.35;;;22.70;98.70;;;;;;5009219;28;20041;-70
2022/10/29 12:33:00;;;;;;;19.40;7.60;;;23.00;98.40;;;;;;4992334;28;20099;-72
2022/10/29 12:35:37;;;;;;;17.00;6.85;;;23.00;98.30;;;;;;5006180;28;20046;-71
2022/10/29 12:38:19;;;;;;;20.73;6.72;;;23.10;97.70;;;;;;5026031;28;20046;-72
2022/10/29 12:40:47;;;;;;;23.17;6.75;;;22.90;98.30;;;;;;5008498;28;20722;-71
2022/10/29 12:43:21;;;;;;;16.83;6.35;;;23.00;97.90;;;;;;4992016;28;20042;-71
2022/10/29 12:45:52;;;;;;;18.50;5.95;;;23.30;97.40;;;;;;5007313;28;20056;-71
2022/10/29 12:48:41;;;;;;;16.02;6.10;;;23.20;97.60;;;;;;4992044;28;20101;-71
2022/10/29 12:51:18;;;;;;;14.85;6.80;;;22.90;97.90;;;;;;5007776;28;20096;-72
2022/10/29 12:54:20;;;;;;;18.13;6.95;;;22.80;97.60;;;;;;5024717;28;20080;-70
2022/10/29 12:56:46;;;;;;;13.18;5.18;;;22.80;98.10;;;;;;5004697;28;20042;-70